createdAt,value
2022-12-22T00:00:25.915Z,100210.78
2022-12-22T00:03:11.438Z,100210.22
2022-12-22T00:05:56.612Z,100210.53
2022-12-22T00:08:42.053Z,100211.66
2022-12-22T00:11:31.193Z,100212.13
2022-12-22T00:14:19.623Z,100207.78
2022-12-22T00:17:05.403Z,100209.13
2022-12-22T00:19:50.592Z,100204.19
2022-12-22T00:22:40.009Z,100196.13
2022-12-22T00:25:26.139Z,100190.72
2022-12-22T00:28:11.301Z,100181.38
2022-12-22T00:30:56.537Z,100186.91
2022-12-22T00:33:46.905Z,100196.94
2022-12-22T00:36:32.921Z,100197.97
2022-12-22T00:39:23.293Z,100187.81
2022-12-22T00:42:08.106Z,100197.50
2022-12-22T00:44:53.281Z,100195.78
2022-12-22T00:47:46.657Z,100192.91
2022-12-22T00:50:35.057Z,100190.81
2022-12-22T00:53:21.845Z,100201.78
2022-12-22T00:56:12.008Z,100194.63
2022-12-22T00:58:57.965Z,100194.94
2022-12-22T01:01:45.907Z,100191.31
2022-12-22T01:04:31.116Z,100191.25
2022-12-22T01:07:19.033Z,100176.41
2022-12-22T01:10:07.887Z,100179.13
2022-12-22T01:12:55.629Z,100173.09
2022-12-22T01:15:41.385Z,100161.22
2022-12-22T01:18:29.215Z,100171.03
2022-12-22T01:21:14.416Z,100170.69
2022-12-22T01:24:00.083Z,100168.41
2022-12-22T01:26:45.475Z,100164.47
2022-12-22T01:29:33.103Z,100169.28
2022-12-22T01:32:18.528Z,100157.91
2022-12-22T01:35:08.739Z,100140.13
2022-12-22T01:37:54.117Z,100130.31
2022-12-22T01:40:43.818Z,100131.72
2022-12-22T01:43:47.287Z,100128.09
2022-12-22T01:46:50.576Z,100133.63
2022-12-22T01:49:45.048Z,100140.13
2022-12-22T01:52:32.399Z,100147.78
2022-12-22T01:55:24.656Z,100149.19
2022-12-22T01:58:12.341Z,100150.31
2022-12-22T02:00:58.509Z,100138.53
2022-12-22T02:03:43.938Z,100148.34
2022-12-22T02:06:37.357Z,100132.44
2022-12-22T02:09:25.726Z,100131.59
2022-12-22T02:12:22.916Z,100133.00
2022-12-22T02:15:30.603Z,100129.38
2022-12-22T02:18:33.808Z,100121.97
2022-12-22T02:21:24.122Z,100127.13
2022-12-22T02:24:57.903Z,100129.19
2022-12-22T02:27:45.397Z,100127.28
2022-12-22T02:30:33.453Z,100125.63
2022-12-22T02:33:21.383Z,100127.81
2022-12-22T02:36:12.314Z,100131.19
2022-12-22T02:39:18.082Z,100127.00
2022-12-22T02:42:21.563Z,100123.34
2022-12-22T02:45:33.863Z,100129.81
2022-12-22T02:48:30.328Z,100113.50
2022-12-22T02:51:28.573Z,100113.16
2022-12-22T02:54:16.063Z,100122.03
2022-12-22T02:57:01.742Z,100126.22
2022-12-22T02:59:49.399Z,100123.75
2022-12-22T03:02:37.310Z,100128.66
2022-12-22T03:05:22.751Z,100127.56
2022-12-22T03:08:10.504Z,100129.03
2022-12-22T03:10:58.258Z,100124.88
2022-12-22T03:13:43.491Z,100119.13
2022-12-22T03:16:31.215Z,100124.56
2022-12-22T03:19:18.907Z,100120.13
2022-12-22T03:22:04.312Z,100121.16
2022-12-22T03:24:49.566Z,100115.19
2022-12-22T03:27:18.670Z,100116.81
2022-12-22T03:29:45.278Z,100114.88
2022-12-22T03:32:14.344Z,100112.22
2022-12-22T03:34:43.628Z,100103.69
2022-12-22T03:37:13.169Z,100103.16
2022-12-22T03:39:44.418Z,100089.97
2022-12-22T03:42:32.593Z,100090.34
2022-12-22T03:45:17.793Z,100082.06
2022-12-22T03:47:49.926Z,100083.00
2022-12-22T03:50:21.459Z,100087.16
2022-12-22T03:52:50.214Z,100077.63
2022-12-22T03:55:17.304Z,100089.09
2022-12-22T03:57:46.813Z,100088.84
2022-12-22T04:00:14.232Z,100088.72
2022-12-22T04:02:41.014Z,100102.63
2022-12-22T04:05:08.382Z,100107.28
2022-12-22T04:07:35.091Z,100104.78
2022-12-22T04:10:23.210Z,100101.59
2022-12-22T04:12:55.231Z,100102.97
2022-12-22T04:15:28.641Z,100115.06
2022-12-22T04:17:56.221Z,100111.97
2022-12-22T04:20:27.265Z,100119.97
2022-12-22T04:22:57.738Z,100114.66
2022-12-22T04:25:26.113Z,100110.88
2022-12-22T04:27:55.187Z,100105.28
2022-12-22T04:30:26.733Z,100110.81
2022-12-22T04:32:55.765Z,100111.09
2022-12-22T04:35:24.884Z,100108.06
2022-12-22T04:37:53.946Z,100100.81
2022-12-22T04:40:22.896Z,100103.88
2022-12-22T04:42:49.574Z,100102.22
2022-12-22T04:45:18.754Z,100096.41
2022-12-22T04:47:45.400Z,100104.63
2022-12-22T04:50:12.084Z,100104.09
2022-12-22T04:52:41.286Z,100089.47
2022-12-22T04:55:09.532Z,100085.88
2022-12-22T04:57:43.705Z,100082.38
2022-12-22T05:00:13.390Z,100090.97
2022-12-22T05:02:45.588Z,100082.56
2022-12-22T05:05:15.107Z,100087.19
2022-12-22T05:07:46.680Z,100087.31
2022-12-22T05:10:15.665Z,100093.34
2022-12-22T05:12:56.852Z,100095.38
2022-12-22T05:15:28.709Z,100086.97
2022-12-22T05:17:59.311Z,100090.66
2022-12-22T05:20:27.400Z,100096.03
2022-12-22T05:22:56.699Z,100089.22
2022-12-22T05:25:34.449Z,100092.06
2022-12-22T05:28:04.202Z,100090.59
2022-12-22T05:30:33.281Z,100099.06
2022-12-22T05:33:02.810Z,100098.59
2022-12-22T05:35:31.935Z,100091.31
2022-12-22T05:38:06.510Z,100089.59
2022-12-22T05:40:33.936Z,100093.34
2022-12-22T05:43:05.973Z,100101.63
2022-12-22T05:45:32.636Z,100089.19
2022-12-22T05:47:59.438Z,100086.72
2022-12-22T05:50:26.592Z,100088.47
2022-12-22T05:52:54.757Z,100086.53
2022-12-22T05:55:26.329Z,100074.38
2022-12-22T05:57:53.626Z,100078.31
2022-12-22T06:00:23.100Z,100093.66
2022-12-22T06:02:54.722Z,100084.91
2022-12-22T06:05:21.558Z,100090.50
2022-12-22T06:07:48.555Z,100089.00
2022-12-22T06:10:15.982Z,100100.09
2022-12-22T06:12:45.141Z,100096.53
2022-12-22T06:15:14.765Z,100091.78
2022-12-22T06:17:44.666Z,100092.25
2022-12-22T06:20:14.807Z,100089.75
2022-12-22T06:22:41.712Z,100091.06
2022-12-22T06:25:17.746Z,100098.09
2022-12-22T06:27:53.608Z,100093.13
2022-12-22T06:30:20.442Z,100095.59
2022-12-22T06:32:47.246Z,100099.63
2022-12-22T06:35:16.538Z,100099.53
2022-12-22T06:37:45.801Z,100096.16
2022-12-22T06:40:12.821Z,100100.91
2022-12-22T06:43:03.966Z,100104.81
2022-12-22T06:45:39.803Z,100116.16
2022-12-22T06:48:09.760Z,100105.69
2022-12-22T06:50:44.228Z,100111.63
2022-12-22T06:53:13.939Z,100107.31
2022-12-22T06:55:43.275Z,100108.38
2022-12-22T06:58:12.476Z,100112.56
2022-12-22T07:00:39.130Z,100097.66
2022-12-22T07:03:06.023Z,100112.38
2022-12-22T07:05:33.035Z,100117.97
2022-12-22T07:08:08.046Z,100108.97
2022-12-22T07:10:56.688Z,100111.13
2022-12-22T07:13:27.694Z,100117.50
2022-12-22T07:16:00.694Z,100101.72
2022-12-22T07:18:41.692Z,100106.25
2022-12-22T07:21:11.336Z,100108.47
2022-12-22T07:23:39.488Z,100108.84
2022-12-22T07:26:38.384Z,100109.28
2022-12-22T07:29:05.076Z,100118.53
2022-12-22T07:31:32.008Z,100110.06
2022-12-22T07:33:58.727Z,100103.16
2022-12-22T07:36:30.255Z,100108.06
2022-12-22T07:38:59.234Z,100108.38
2022-12-22T07:41:47.081Z,100118.69
2022-12-22T07:44:16.298Z,100125.66
2022-12-22T07:46:51.412Z,100127.09
2022-12-22T07:49:36.720Z,100127.41
2022-12-22T07:52:03.579Z,100134.69
2022-12-22T07:54:41.692Z,100126.47
2022-12-22T07:57:11.432Z,100119.66
2022-12-22T07:59:38.078Z,100126.94
2022-12-22T08:02:11.747Z,100129.59
2022-12-22T08:04:58.682Z,100125.19
2022-12-22T08:07:27.709Z,100122.88
2022-12-22T08:09:54.471Z,100129.22
2022-12-22T08:12:21.240Z,100125.34
2022-12-22T08:14:50.450Z,100127.56
2022-12-22T08:17:22.153Z,100127.34
2022-12-22T08:19:48.911Z,100123.72
2022-12-22T08:22:15.684Z,100134.38
2022-12-22T08:24:42.389Z,100134.53
2022-12-22T08:27:25.555Z,100134.22
2022-12-22T08:30:00.204Z,100125.66
2022-12-22T08:32:29.336Z,100112.06
2022-12-22T08:34:58.484Z,100121.63
2022-12-22T08:37:29.969Z,100117.66
2022-12-22T08:40:09.445Z,100107.84
2022-12-22T08:42:38.915Z,100114.75
2022-12-22T08:45:09.496Z,100118.72
2022-12-22T08:47:36.320Z,100116.97
2022-12-22T08:50:06.291Z,100129.66
2022-12-22T08:52:35.740Z,100124.59
2022-12-22T08:55:07.681Z,100129.25
2022-12-22T08:57:34.409Z,100138.53
2022-12-22T09:00:03.558Z,100128.31
2022-12-22T09:02:33.400Z,100128.22
2022-12-22T09:05:00.265Z,100115.34
2022-12-22T09:07:27.089Z,100115.31
2022-12-22T09:09:57.837Z,100101.09
2022-12-22T09:12:26.906Z,100102.69
2022-12-22T09:14:58.720Z,100106.56
2022-12-22T09:17:27.676Z,100091.69
2022-12-22T09:19:56.641Z,100086.63
2022-12-22T09:22:28.105Z,100084.50
2022-12-22T09:24:57.785Z,100088.34
2022-12-22T09:27:24.421Z,100080.56
2022-12-22T09:29:55.807Z,100075.78
2022-12-22T09:32:24.799Z,100077.09
2022-12-22T09:34:51.515Z,100083.03
2022-12-22T09:37:25.480Z,100069.97
2022-12-22T09:39:52.396Z,100071.72
2022-12-22T09:42:24.120Z,100071.16
2022-12-22T09:45:00.291Z,100075.19
2022-12-22T09:47:40.797Z,100076.53
2022-12-22T09:53:06.669Z,100071.19
2022-12-22T09:55:51.644Z,100064.88
2022-12-22T09:58:31.509Z,100058.66
2022-12-22T10:01:26.789Z,100049.09
2022-12-22T10:04:01.333Z,100043.34
2022-12-22T10:06:46.283Z,100051.41
2022-12-22T10:12:19.841Z,100046.06
2022-12-22T10:14:48.921Z,100046.91
2022-12-22T10:17:15.944Z,100035.13
2022-12-22T10:19:43.655Z,100034.53
2022-12-22T10:22:26.869Z,100040.66
2022-12-22T10:24:57.286Z,100037.19
2022-12-22T10:27:29.210Z,100032.16
2022-12-22T10:30:18.898Z,100038.66
2022-12-22T10:33:04.550Z,100029.44
2022-12-22T10:35:50.760Z,100028.22
2022-12-22T10:38:39.673Z,100018.81
2022-12-22T10:41:17.619Z,100016.59
2022-12-22T10:43:55.485Z,100016.47
2022-12-22T10:46:49.254Z,100009.69
2022-12-22T10:49:15.932Z,100002.28
2022-12-22T10:51:48.241Z,100003.06
2022-12-22T10:54:33.242Z,100006.56
2022-12-22T10:57:04.667Z,99992.75
2022-12-22T10:59:32.945Z,99990.03
2022-12-22T11:02:25.551Z,100008.31
2022-12-22T11:04:56.758Z,100011.94
2022-12-22T11:07:26.239Z,100010.59
2022-12-22T11:09:56.598Z,99999.06
2022-12-22T11:12:44.753Z,100002.16
2022-12-22T11:15:45.520Z,99999.91
2022-12-22T11:18:49.746Z,99997.72
2022-12-22T11:21:24.624Z,99998.44
2022-12-22T11:24:27.929Z,99996.81
2022-12-22T11:27:50.594Z,99987.34
2022-12-22T11:30:28.473Z,99982.75
2022-12-22T11:33:20.627Z,99980.25
2022-12-22T11:36:07.167Z,99975.44
2022-12-22T11:39:47.731Z,99968.34
2022-12-22T11:42:09.229Z,99982.47
2022-12-22T11:44:42.588Z,99992.16
2022-12-22T11:47:12.130Z,99998.25
2022-12-22T11:49:51.055Z,99998.63
2022-12-22T11:52:45.772Z,99996.06
2022-12-22T11:55:40.800Z,99987.94
2022-12-22T12:09:58.783Z,99978.59
2022-12-22T12:12:35.723Z,99985.97
2022-12-22T12:15:39.682Z,99976.91
2022-12-22T12:18:46.217Z,99984.09
2022-12-22T12:21:38.913Z,99966.94
2022-12-22T12:24:47.359Z,99966.84
2022-12-22T12:27:14.945Z,99954.50
2022-12-22T12:30:06.223Z,99948.81
2022-12-22T12:32:38.965Z,99969.22
2022-12-22T12:35:32.060Z,99982.97
2022-12-22T12:38:08.164Z,99992.66
2022-12-22T12:40:37.783Z,100007.75
2022-12-22T12:43:14.201Z,100001.31
2022-12-22T12:45:45.685Z,100004.09
2022-12-22T12:48:21.942Z,99999.06
2022-12-22T12:50:48.884Z,100001.84
2022-12-22T12:53:16.965Z,100002.84
2022-12-22T12:55:49.688Z,100000.84
2022-12-22T12:58:35.190Z,99986.66
2022-12-22T13:01:04.020Z,99994.06
2022-12-22T13:04:01.273Z,99989.84
2022-12-22T13:06:51.055Z,99987.72
2022-12-22T13:09:49.034Z,99984.09
2022-12-22T13:12:58.149Z,99977.78
2022-12-22T13:15:27.951Z,99978.75
2022-12-22T13:17:54.900Z,99979.19
2022-12-22T13:20:31.262Z,99973.78
2022-12-22T13:23:00.712Z,99971.19
2022-12-22T13:25:49.992Z,99973.53
2022-12-22T13:28:19.378Z,99962.72
2022-12-22T13:30:53.245Z,99967.25
2022-12-22T13:33:25.403Z,99957.97
2022-12-22T13:35:58.550Z,99965.72
2022-12-22T13:38:31.421Z,99950.09
2022-12-22T13:41:14.781Z,99943.03
2022-12-22T13:43:59.643Z,99924.56
2022-12-22T13:46:30.620Z,99922.66
2022-12-22T13:49:04.828Z,99918.13
2022-12-22T13:51:38.306Z,99929.84
2022-12-22T13:54:18.927Z,99925.44
2022-12-22T13:56:51.256Z,99921.03
2022-12-22T13:59:29.989Z,99925.53
2022-12-22T14:02:01.501Z,99916.06
2022-12-22T14:04:33.548Z,99904.59
2022-12-22T14:07:20.230Z,99910.69
2022-12-22T14:09:58.444Z,99930.22
2022-12-22T14:12:45.551Z,99920.00
2022-12-22T14:15:20.455Z,99913.66
2022-12-22T14:17:54.986Z,99910.44
2022-12-22T14:22:55.085Z,99906.13
2022-12-22T14:24:57.250Z,99907.25
2022-12-22T14:27:39.671Z,99923.97
2022-12-22T14:30:23.473Z,99925.22
2022-12-22T14:32:58.567Z,99926.38
2022-12-22T14:36:31.493Z,99934.53
2022-12-22T14:42:47.065Z,99966.75
2022-12-22T14:46:39.036Z,99966.88
2022-12-22T14:48:50.164Z,99965.50
2022-12-22T14:51:21.651Z,99964.63
2022-12-22T14:54:08.537Z,99966.69
2022-12-22T14:56:35.380Z,99958.22
2022-12-22T14:59:22.256Z,99961.34
2022-12-22T15:02:22.009Z,99968.72
2022-12-22T15:04:48.785Z,99950.66
2022-12-22T15:07:54.203Z,99945.50
2022-12-22T15:10:15.719Z,99938.19
2022-12-22T15:12:52.955Z,99949.38
2022-12-22T15:15:38.738Z,99943.50
2022-12-22T15:18:12.750Z,99937.91
2022-12-22T15:20:40.196Z,99934.72
2022-12-22T15:23:17.601Z,99930.44
2022-12-22T15:25:45.190Z,99928.50
2022-12-22T15:28:29.162Z,99926.50
2022-12-22T15:31:01.831Z,99940.97
2022-12-22T15:33:38.032Z,99929.84
2022-12-22T15:36:14.014Z,99930.13
2022-12-22T15:38:43.203Z,99929.03
2022-12-22T15:41:14.679Z,99924.47
2022-12-22T15:43:58.010Z,99926.63
2022-12-22T15:46:25.717Z,99909.88
2022-12-22T15:48:55.167Z,99894.16
2022-12-22T15:51:24.252Z,99894.69
2022-12-22T15:53:57.756Z,99898.81
2022-12-22T15:56:26.444Z,99894.38
2022-12-22T15:58:59.394Z,99907.97
2022-12-22T16:01:28.290Z,99900.38
2022-12-22T16:03:57.682Z,99897.84
2022-12-22T16:06:24.811Z,99896.00
2022-12-22T16:08:53.525Z,99899.69
2022-12-22T16:11:20.541Z,99890.97
2022-12-22T16:13:49.556Z,99890.91
2022-12-22T16:16:18.873Z,99892.66
2022-12-22T16:18:48.095Z,99894.91
2022-12-22T16:21:18.963Z,99898.09
2022-12-22T16:23:48.354Z,99891.09
2022-12-22T16:26:19.492Z,99910.16
2022-12-22T16:28:46.983Z,99911.22
2022-12-22T16:31:22.771Z,99922.44
2022-12-22T16:33:50.351Z,99923.66
2022-12-22T16:36:17.520Z,99931.94
2022-12-22T16:38:48.081Z,99922.66
2022-12-22T16:41:20.124Z,99923.09
2022-12-22T16:46:38.647Z,99920.34
2022-12-22T16:49:09.642Z,99918.16
2022-12-22T16:51:49.863Z,99911.59
2022-12-22T16:54:21.539Z,99916.25
2022-12-22T16:56:52.117Z,99914.56
2022-12-22T16:59:22.044Z,99920.56
2022-12-22T17:01:57.467Z,99914.19
2022-12-22T17:04:32.067Z,99917.94
2022-12-22T17:07:03.739Z,99918.88
2022-12-22T17:09:53.960Z,99912.09
2022-12-22T17:12:30.426Z,99909.41
2022-12-22T17:14:58.609Z,99902.72
2022-12-22T17:17:52.089Z,99904.44
2022-12-22T17:20:21.642Z,99898.78
2022-12-22T17:22:58.613Z,99899.56
2022-12-22T17:25:30.695Z,99893.78
2022-12-22T17:28:01.083Z,99894.41
2022-12-22T17:30:28.167Z,99892.22
2022-12-22T17:32:55.160Z,99890.72
2022-12-22T17:35:29.048Z,99900.59
2022-12-22T17:37:58.150Z,99894.72
2022-12-22T17:40:32.612Z,99897.66
2022-12-22T17:43:02.154Z,99887.09
2022-12-22T17:45:31.441Z,99882.41
2022-12-22T17:47:58.273Z,99888.59
2022-12-22T17:50:27.374Z,99892.50
2022-12-22T17:52:55.469Z,99889.50
2022-12-22T17:56:05.869Z,99900.59
2022-12-22T17:58:17.862Z,99900.41
2022-12-22T18:01:01.615Z,99893.25
2022-12-22T18:03:30.634Z,99899.28
2022-12-22T18:06:02.669Z,99896.84
2022-12-22T18:11:45.884Z,99896.22
2022-12-22T18:18:24.735Z,99907.56
2022-12-22T18:21:44.363Z,99896.09
2022-12-22T18:24:26.997Z,99894.47
2022-12-22T18:27:02.885Z,99904.91
2022-12-22T18:30:08.340Z,99902.28
2022-12-22T18:33:38.219Z,99895.16
2022-12-22T18:36:05.218Z,99890.84
2022-12-22T18:42:34.959Z,99878.56
2022-12-22T18:48:35.468Z,99864.03
2022-12-22T18:51:05.213Z,99859.91
2022-12-22T18:53:32.730Z,99849.19
2022-12-22T18:56:01.800Z,99849.06
2022-12-22T18:58:28.619Z,99841.13
2022-12-22T19:01:00.285Z,99843.84
2022-12-22T19:03:30.033Z,99852.19
2022-12-22T19:06:00.349Z,99850.31
2022-12-22T19:08:28.270Z,99853.31
2022-12-22T19:11:02.777Z,99850.66
2022-12-22T19:13:47.220Z,99841.84
2022-12-22T19:16:19.377Z,99843.47
2022-12-22T19:18:48.548Z,99842.13
2022-12-22T19:21:23.226Z,99835.47
2022-12-22T19:23:54.409Z,99828.00
2022-12-22T19:26:26.952Z,99837.03
2022-12-22T19:29:00.679Z,99827.72
2022-12-22T19:31:31.062Z,99825.56
2022-12-22T19:34:00.104Z,99819.38
2022-12-22T19:36:33.483Z,99819.91
2022-12-22T19:39:04.387Z,99822.53
2022-12-22T19:41:34.221Z,99809.75
2022-12-22T19:44:01.655Z,99824.50
2022-12-22T19:46:35.220Z,99821.28
2022-12-22T19:49:04.007Z,99825.88
2022-12-22T19:51:32.950Z,99816.97
2022-12-22T19:53:59.625Z,99817.31
2022-12-22T19:56:32.549Z,99809.50
2022-12-22T19:59:03.551Z,99818.38
2022-12-22T20:01:30.545Z,99815.50
2022-12-22T20:03:59.630Z,99827.72
2022-12-22T20:06:26.268Z,99829.97
2022-12-22T20:08:53.135Z,99825.50
2022-12-22T20:11:20.501Z,99834.88
2022-12-22T20:13:47.867Z,99834.69
2022-12-22T20:16:21.074Z,99832.03
2022-12-22T20:18:47.701Z,99828.41
2022-12-22T20:21:32.497Z,99839.16
2022-12-22T20:24:03.981Z,99831.44
2022-12-22T20:26:33.055Z,99831.63
2022-12-22T20:29:02.292Z,99829.09
2022-12-22T20:31:29.123Z,99826.09
2022-12-22T20:33:58.172Z,99813.88
2022-12-22T20:36:32.244Z,99815.63
2022-12-22T20:39:02.219Z,99802.53
2022-12-22T20:41:31.256Z,99785.16
2022-12-22T20:43:58.234Z,99783.41
2022-12-22T20:46:29.559Z,99788.28
2022-12-22T20:49:01.742Z,99783.06
2022-12-22T20:51:34.162Z,99783.84
2022-12-22T20:54:01.712Z,99774.59
2022-12-22T20:56:31.817Z,99779.75
2022-12-22T20:59:06.959Z,99769.63
2022-12-22T21:01:36.135Z,99778.41
2022-12-22T21:04:02.866Z,99778.06
2022-12-22T21:06:35.094Z,99778.31
2022-12-22T21:09:04.961Z,99774.84
2022-12-22T21:11:32.137Z,99781.31
2022-12-22T21:14:04.007Z,99777.38
2022-12-22T21:16:34.469Z,99774.25
2022-12-22T21:19:04.183Z,99776.16
2022-12-22T21:21:33.267Z,99767.75
2022-12-22T21:23:59.931Z,99773.50
2022-12-22T21:26:36.334Z,99783.78
2022-12-22T21:29:09.520Z,99768.19
2022-12-22T21:31:38.843Z,99764.50
2022-12-22T21:34:05.399Z,99765.69
2022-12-22T21:36:37.401Z,99762.91
2022-12-22T21:39:17.553Z,99751.50
2022-12-22T21:42:02.000Z,99752.03
2022-12-22T21:44:30.610Z,99748.03
2022-12-22T21:47:00.101Z,99740.72
2022-12-22T21:49:32.169Z,99744.31
2022-12-22T21:51:59.474Z,99738.75
2022-12-22T21:54:27.012Z,99743.91
2022-12-22T21:56:59.933Z,99745.94
2022-12-22T21:59:26.953Z,99750.72
2022-12-22T22:01:54.152Z,99735.66
2022-12-22T22:04:21.582Z,99732.81
2022-12-22T22:06:48.648Z,99729.22
2022-12-22T22:09:15.707Z,99733.44
2022-12-22T22:12:01.293Z,99733.56
2022-12-22T22:14:28.239Z,99729.44
2022-12-22T22:16:54.910Z,99735.25
2022-12-22T22:19:21.946Z,99731.28
2022-12-22T22:21:48.812Z,99734.31
2022-12-22T22:24:15.460Z,99739.06
2022-12-22T22:26:45.728Z,99737.13
2022-12-22T22:29:12.453Z,99742.47
2022-12-22T22:31:41.340Z,99743.72
2022-12-22T22:34:08.420Z,99728.72
2022-12-22T22:36:35.132Z,99731.75
2022-12-22T22:39:01.886Z,99722.75
2022-12-22T22:41:37.710Z,99716.06
2022-12-22T22:44:08.286Z,99715.50
2022-12-22T22:46:35.014Z,99717.97
2022-12-22T22:49:01.674Z,99717.97
2022-12-22T22:51:28.705Z,99717.66
2022-12-22T22:53:55.429Z,99715.81
2022-12-22T22:56:22.250Z,99696.94
2022-12-22T22:58:49.302Z,99703.81
2022-12-22T23:01:16.317Z,99703.28
2022-12-22T23:03:43.078Z,99696.16
2022-12-22T23:06:12.800Z,99700.69
2022-12-22T23:08:39.676Z,99706.22
2022-12-22T23:11:12.498Z,99714.25
2022-12-22T23:13:39.282Z,99700.88
2022-12-22T23:16:06.139Z,99702.59
2022-12-22T23:18:33.833Z,99706.81
2022-12-22T23:21:06.495Z,99696.88
2022-12-22T23:23:34.502Z,99699.22
2022-12-22T23:26:01.829Z,99703.94
2022-12-22T23:28:28.613Z,99688.84
2022-12-22T23:30:55.330Z,99689.81
2022-12-22T23:33:22.501Z,99699.31
2022-12-22T23:35:50.741Z,99699.16
2022-12-22T23:38:20.673Z,99711.31
2022-12-22T23:40:52.846Z,99700.97
2022-12-22T23:43:23.354Z,99712.53
2022-12-22T23:45:50.177Z,99707.38
2022-12-22T23:48:17.230Z,99716.66
2022-12-22T23:50:48.379Z,99705.31
2022-12-22T23:53:16.959Z,99708.97
2022-12-22T23:55:45.703Z,99710.59
2022-12-22T23:58:12.666Z,99697.13
